Time;durP1;ratioP1;P1;durP2;ratioP2;P2;SDS_P1;SDS_P2;PMS_P1;PMS_P2;Temp;Humidity;BMP_temperature;BMP_pressure;BME280_temperature;BME280_humidity;BME280_pressure;Samples;Min_cycle;Max_cycle;Signal;HPM_P1;HPM_P2
2022/03/12 00:00:48;;;;;;;36.13;14.05;;;;;;;-4.22;42.44;99934.38;5004861;28;20038;-65
2022/03/12 00:03:14;;;;;;;38.00;14.65;;;;;;;-4.25;42.51;99931.19;5008826;28;20068;-64
2022/03/12 00:05:48;;;;;;;45.72;16.48;;;;;;;-4.30;42.46;99939.72;5007600;28;20030;-64
2022/03/12 00:08:15;;;;;;;42.05;14.65;;;;;;;-4.36;43.01;99926.97;5009008;28;20493;-64
2022/03/12 00:10:43;;;;;;;40.58;16.35;;;;;;;-4.44;43.31;99938.47;5009345;28;20061;-64
2022/03/12 00:13:08;;;;;;;37.22;13.43;;;;;;;-4.51;43.01;99932.94;5005807;28;20033;-64
2022/03/12 00:15:38;;;;;;;39.42;14.55;;;;;;;-4.52;43.03;99936.63;5009628;28;20026;-63
2022/03/12 00:18:06;;;;;;;32.80;12.77;;;;;;;-4.55;43.40;99941.47;5010227;28;20117;-63
2022/03/12 00:20:32;;;;;;;31.65;11.07;;;;;;;-4.58;43.01;99944.47;5007433;28;20634;-64
2022/03/12 00:22:58;;;;;;;30.15;12.10;;;;;;;-4.60;42.93;99938.44;5008936;28;20021;-64
2022/03/12 00:25:25;;;;;;;30.48;12.65;;;;;;;-4.59;43.31;99948.97;5012189;28;20385;-64
2022/03/12 00:27:51;;;;;;;30.25;12.45;;;;;;;-4.56;43.12;99953.19;5013154;28;20026;-64
2022/03/12 00:30:23;;;;;;;27.80;11.98;;;;;;;-4.51;42.99;99953.53;5013335;28;20061;-64
2022/03/12 00:32:49;;;;;;;29.13;13.20;;;;;;;-4.45;43.00;99958.22;5010193;28;20362;-64
2022/03/12 00:35:16;;;;;;;31.40;14.05;;;;;;;-4.39;42.37;99948.72;5012183;28;20068;-63
2022/03/12 00:37:42;;;;;;;31.73;12.90;;;;;;;-4.38;42.83;99953.09;5009530;28;20060;-63
2022/03/12 00:40:08;;;;;;;36.40;14.60;;;;;;;-4.37;42.42;99944.03;5011680;28;20591;-63
2022/03/12 00:42:34;;;;;;;34.70;14.82;;;;;;;-4.33;42.67;99948.09;5010585;28;20034;-63
2022/03/12 00:45:00;;;;;;;33.58;12.95;;;;;;;-4.29;42.29;99946.75;5010857;28;20036;-63
2022/03/12 00:47:28;;;;;;;32.95;13.98;;;;;;;-4.27;42.32;99942.03;5011374;28;20060;-63
2022/03/12 00:49:54;;;;;;;38.08;16.05;;;;;;;-4.25;42.09;99945.41;5010635;28;20485;-64
2022/03/12 00:52:22;;;;;;;33.90;14.77;;;;;;;-4.24;42.08;99949.75;5009925;28;20033;-63
2022/03/12 00:54:47;;;;;;;36.72;16.48;;;;;;;-4.24;42.30;99952.44;5010464;28;20386;-63
2022/03/12 00:57:13;;;;;;;31.58;15.05;;;;;;;-4.22;42.22;99953.13;5011551;28;20026;-63
2022/03/12 00:59:42;;;;;;;33.88;15.05;;;;;;;-4.23;42.24;99950.63;5009471;28;20041;-64
2022/03/12 01:02:14;;;;;;;38.13;15.60;;;;;;;-4.23;42.32;99956.78;5009132;28;20037;-63
2022/03/12 01:04:39;;;;;;;33.65;14.60;;;;;;;-4.24;41.96;99952.44;5010449;28;20625;-63
2022/03/12 01:07:05;;;;;;;39.10;15.73;;;;;;;-4.25;42.15;99950.75;5011249;28;20129;-63
2022/03/12 01:09:30;;;;;;;32.47;14.35;;;;;;;-4.27;42.35;99949.25;5011057;28;20128;-63
2022/03/12 01:11:56;;;;;;;32.63;13.50;;;;;;;-4.27;42.32;99947.41;5010532;28;20037;-63
2022/03/12 01:14:22;;;;;;;35.85;14.73;;;;;;;-4.32;41.99;99946.22;5010495;28;20034;-63
2022/03/12 01:16:47;;;;;;;32.25;14.32;;;;;;;-4.36;42.21;99943.88;5011597;28;20069;-64
2022/03/12 01:19:14;;;;;;;35.00;15.20;;;;;;;-4.35;42.76;99950.09;5010867;28;20125;-63
2022/03/12 01:21:39;;;;;;;36.05;14.27;;;;;;;-4.36;41.88;99948.41;5010753;28;20041;-63
2022/03/12 01:24:05;;;;;;;34.28;15.73;;;;;;;-4.37;42.16;99939.50;5008823;28;20029;-63
2022/03/12 01:26:30;;;;;;;35.15;14.63;;;;;;;-4.37;42.38;99944.03;5010379;28;20113;-64
2022/03/12 01:28:56;;;;;;;37.33;16.27;;;;;;;-4.39;42.78;99941.50;5010396;28;20144;-64
2022/03/12 01:31:22;;;;;;;33.22;14.13;;;;;;;-4.45;42.64;99935.97;5011781;28;20603;-63
2022/03/12 01:33:48;;;;;;;35.95;14.30;;;;;;;-4.54;43.15;99937.78;5009657;28;20474;-64
2022/03/12 01:36:14;;;;;;;40.08;15.32;;;;;;;-4.65;42.99;99934.41;5009329;28;20040;-64
2022/03/12 01:38:51;;;;;;;35.33;13.68;;;;;;;-4.75;43.57;99936.34;5010773;28;20030;-63
2022/03/12 01:41:26;;;;;;;36.38;15.70;;;;;;;-4.86;43.45;99928.59;5008233;28;20097;-63
2022/03/12 01:43:54;;;;;;;30.70;14.85;;;;;;;-4.94;44.22;99938.28;5010323;28;20291;-64
2022/03/12 01:46:29;;;;;;;36.92;15.70;;;;;;;-4.92;43.69;99948.81;5009397;28;20040;-64
2022/03/12 01:48:58;;;;;;;38.03;16.70;;;;;;;-4.88;43.99;99944.81;5010030;28;20029;-63
2022/03/12 01:51:24;;;;;;;33.53;14.52;;;;;;;-4.86;43.52;99936.63;5010707;28;20493;-63
2022/03/12 01:53:50;;;;;;;31.63;14.32;;;;;;;-4.88;43.22;99944.81;5007543;28;20113;-63
2022/03/12 01:56:15;;;;;;;37.20;15.98;;;;;;;-4.84;43.27;99943.50;5010276;28;20041;-64
2022/03/12 01:58:47;;;;;;;38.50;16.08;;;;;;;-4.83;43.29;99942.50;5008377;28;20034;-64
2022/03/12 02:01:13;;;;;;;38.17;18.52;;;;;;;-4.81;43.50;99934.31;5010263;28;20022;-64
2022/03/12 02:03:38;;;;;;;47.45;18.27;;;;;;;-4.79;43.77;99932.31;5009357;28;20030;-62
2022/03/12 02:06:04;;;;;;;36.88;16.38;;;;;;;-4.78;43.72;99926.81;5009633;28;20022;-63
2022/03/12 02:08:29;;;;;;;34.70;16.83;;;;;;;-4.76;43.36;99933.84;5009907;28;20073;-65
2022/03/12 02:10:59;;;;;;;38.63;16.25;;;;;;;-4.76;43.30;99934.66;5009590;28;20026;-65
2022/03/12 02:13:26;;;;;;;39.80;16.05;;;;;;;-4.79;43.37;99935.84;5009070;28;20025;-65
2022/03/12 02:16:05;;;;;;;34.95;15.77;;;;;;;-4.83;43.54;99934.47;5027115;28;20026;-65
2022/03/12 02:18:30;;;;;;;34.50;15.10;;;;;;;-4.87;43.32;99927.75;5005968;28;20022;-65
2022/03/12 02:20:58;;;;;;;33.97;15.02;;;;;;;-4.88;43.37;99930.59;5009006;28;20501;-64
2022/03/12 02:23:23;;;;;;;32.90;15.40;;;;;;;-4.87;43.21;99933.13;5008949;28;20495;-65
2022/03/12 02:25:49;;;;;;;36.08;15.40;;;;;;;-4.88;43.54;99935.94;5009728;28;20036;-65
2022/03/12 02:28:17;;;;;;;41.42;16.10;;;;;;;-4.89;43.63;99928.94;5009878;28;20108;-65
2022/03/12 02:30:51;;;;;;;36.83;16.33;;;;;;;-4.91;44.02;99923.72;5009314;28;20041;-65
2022/03/12 02:33:26;;;;;;;38.67;17.02;;;;;;;-4.94;43.87;99916.88;5009538;28;20129;-65
2022/03/12 02:35:52;;;;;;;40.17;17.75;;;;;;;-4.95;44.14;99931.25;5008180;28;20041;-65
2022/03/12 02:38:18;;;;;;;34.15;15.38;;;;;;;-4.95;43.90;99930.38;5010314;28;20034;-63
2022/03/12 02:40:45;;;;;;;34.67;15.18;;;;;;;-4.98;44.22;99936.06;5009556;28;20044;-63
2022/03/12 02:43:13;;;;;;;37.60;16.25;;;;;;;-5.04;44.36;99934.88;5009218;28;20034;-63
2022/03/12 02:45:39;;;;;;;38.40;15.90;;;;;;;-5.07;44.46;99935.19;5008781;28;20109;-63
2022/03/12 02:48:08;;;;;;;32.47;15.13;;;;;;;-5.06;44.08;99926.16;5008897;28;20116;-64
2022/03/12 02:50:34;;;;;;;39.40;16.67;;;;;;;-5.04;44.01;99928.66;5008997;28;20470;-64
2022/03/12 02:53:00;;;;;;;34.90;15.00;;;;;;;-5.05;44.58;99932.34;5009030;28;20048;-63
2022/03/12 02:55:26;;;;;;;37.35;16.48;;;;;;;-5.04;44.44;99931.34;5009110;28;20026;-64
2022/03/12 02:57:52;;;;;;;34.53;16.05;;;;;;;-5.02;44.62;99935.56;5009442;28;20109;-64
2022/03/12 03:00:19;;;;;;;41.58;16.83;;;;;;;-5.02;44.71;99932.88;5009043;28;20034;-64
2022/03/12 03:02:56;;;;;;;35.65;16.45;;;;;;;-5.01;44.13;99931.03;5008410;28;20088;-63
2022/03/12 03:08:02;;;;;;;41.58;17.70;;;;;;;-5.03;44.52;99931.19;5007577;28;20107;-64
2022/03/12 03:10:33;;;;;;;39.05;17.98;;;;;;;-5.03;44.20;99939.22;5008834;28;20069;-64
2022/03/12 03:12:58;;;;;;;39.03;16.55;;;;;;;-5.08;44.20;99931.66;5009144;28;20025;-64
2022/03/12 03:15:25;;;;;;;36.03;16.15;;;;;;;-5.14;44.59;99929.63;5008704;28;20033;-64
2022/03/12 03:17:51;;;;;;;41.42;18.42;;;;;;;-5.11;44.48;99939.16;5009580;28;20481;-64
2022/03/12 03:20:17;;;;;;;100.93;32.28;;;;;;;-5.12;44.74;99938.34;5009394;28;20497;-64
2022/03/12 03:22:43;;;;;;;271.92;80.18;;;;;;;-5.14;44.49;99940.34;5008462;28;20033;-64
2022/03/12 03:25:08;;;;;;;206.13;65.95;;;;;;;-5.15;44.50;99935.97;5009393;28;20030;-64
2022/03/12 03:27:34;;;;;;;150.07;57.47;;;;;;;-5.15;44.73;99952.03;5008748;28;20040;-64
2022/03/12 03:29:59;;;;;;;138.70;56.65;;;;;;;-5.15;44.99;99944.00;5007805;28;20541;-63
2022/03/12 03:32:25;;;;;;;66.47;29.92;;;;;;;-5.14;44.60;99948.34;5009248;28;20022;-64
2022/03/12 03:34:50;;;;;;;52.63;22.27;;;;;;;-5.14;44.87;99940.34;5009193;28;20062;-64
2022/03/12 03:37:16;;;;;;;41.22;18.85;;;;;;;-5.12;44.59;99942.84;5009739;28;20026;-64
2022/03/12 03:39:41;;;;;;;37.20;16.27;;;;;;;-5.12;45.21;99938.34;5009472;28;20038;-64
2022/03/12 03:42:07;;;;;;;36.15;17.45;;;;;;;-5.13;45.01;99938.47;5009002;28;20053;-64
2022/03/12 03:44:32;;;;;;;36.95;17.92;;;;;;;-5.13;44.86;99934.00;5009544;28;20497;-64
2022/03/12 03:46:58;;;;;;;42.25;19.50;;;;;;;-5.14;44.80;99934.97;5009394;28;20038;-64
2022/03/12 03:49:24;;;;;;;37.85;17.30;;;;;;;-5.17;45.24;99934.44;5009257;28;20034;-63
2022/03/12 03:51:51;;;;;;;42.17;18.73;;;;;;;-5.20;45.04;99937.44;5009328;28;20030;-63
2022/03/12 03:54:17;;;;;;;46.45;20.77;;;;;;;-5.21;44.56;99943.78;5009861;28;20041;-64
2022/03/12 03:56:43;;;;;;;50.58;22.48;;;;;;;-5.26;45.36;99945.06;5009185;28;20109;-64
2022/03/12 03:59:08;;;;;;;49.70;21.67;;;;;;;-5.29;45.18;99949.91;5010718;28;20034;-63
2022/03/12 04:01:39;;;;;;;43.05;20.23;;;;;;;-5.32;45.02;99951.06;5012014;28;20034;-63
2022/03/12 04:04:05;;;;;;;48.38;20.92;;;;;;;-5.32;45.00;99953.75;5011729;28;20489;-64
2022/03/12 04:06:30;;;;;;;45.85;19.85;;;;;;;-5.29;45.00;99949.91;5012668;28;20022;-64
2022/03/12 04:08:56;;;;;;;41.58;18.27;;;;;;;-5.33;44.86;99948.53;5013056;28;20524;-63
2022/03/12 04:11:23;;;;;;;45.17;20.58;;;;;;;-5.34;45.10;99941.50;5012319;28;20116;-63
2022/03/12 04:13:51;;;;;;;42.95;18.80;;;;;;;-5.35;45.03;99938.00;5011886;28;20112;-63
2022/03/12 04:16:18;;;;;;;38.53;16.90;;;;;;;-5.34;45.22;99947.72;5013263;28;20026;-63
2022/03/12 04:18:46;;;;;;;35.63;16.88;;;;;;;-5.34;44.71;99952.22;5013158;28;20038;-64
2022/03/12 04:21:16;;;;;;;38.03;16.95;;;;;;;-5.42;45.26;99953.00;5013196;28;20038;-64
2022/03/12 04:23:43;;;;;;;38.53;18.02;;;;;;;-5.54;45.27;99957.75;5009170;28;20088;-63
2022/03/12 04:26:11;;;;;;;38.28;18.83;;;;;;;-5.59;45.14;99960.88;5012676;28;20038;-62
2022/03/12 04:28:40;;;;;;;34.60;16.65;;;;;;;-5.61;45.11;99956.69;5011737;28;20030;-64
2022/03/12 04:31:07;;;;;;;33.80;16.38;;;;;;;-5.61;45.74;99965.53;5011388;28;20040;-63
2022/03/12 04:33:34;;;;;;;36.03;16.48;;;;;;;-5.63;45.43;99966.69;5011704;28;20033;-63
2022/03/12 04:36:02;;;;;;;38.03;16.75;;;;;;;-5.65;45.24;99964.16;5011744;28;20037;-64
2022/03/12 04:38:27;;;;;;;35.17;16.65;;;;;;;-5.68;45.57;99970.66;5012689;28;20113;-64
2022/03/12 04:40:55;;;;;;;37.22;17.38;;;;;;;-5.67;45.49;99971.50;5013054;28;20132;-63
2022/03/12 04:43:21;;;;;;;41.92;18.63;;;;;;;-5.69;45.60;99971.66;5009462;28;20394;-64
2022/03/12 04:45:49;;;;;;;43.80;18.30;;;;;;;-5.65;45.73;99974.03;5012580;28;20432;-65
2022/03/12 04:48:21;;;;;;;45.00;18.70;;;;;;;-5.66;46.13;99975.84;5012468;28;20084;-63
2022/03/12 04:50:48;;;;;;;44.20;18.75;;;;;;;-5.64;45.52;99963.16;5012522;28;20028;-64
2022/03/12 04:53:13;;;;;;;37.88;17.52;;;;;;;-5.61;45.61;99964.72;5012462;28;20308;-64
2022/03/12 04:55:39;;;;;;;41.85;19.15;;;;;;;-5.62;45.49;99968.38;5011792;28;20544;-63
2022/03/12 04:58:07;;;;;;;37.92;18.02;;;;;;;-5.62;45.84;99969.19;5011970;28;20025;-64
2022/03/12 05:00:40;;;;;;;39.70;18.60;;;;;;;-5.62;45.65;99969.19;5012381;28;20034;-64
2022/03/12 05:03:09;;;;;;;37.67;17.10;;;;;;;-5.60;45.39;99971.72;5011918;28;20076;-64
2022/03/12 05:05:40;;;;;;;42.10;17.67;;;;;;;-5.64;46.13;99987.22;5009567;28;20034;-64
2022/03/12 05:08:10;;;;;;;38.78;17.17;;;;;;;-5.65;45.64;99979.38;5011917;28;20034;-63
2022/03/12 05:10:36;;;;;;;;;;;;;;;-5.62;45.92;99982.56;5011105;28;20022;-64
2022/03/12 05:13:01;;;;;;;44.22;18.83;;;;;;;-5.63;45.91;99978.22;5011292;28;19925;-63
2022/03/12 05:15:38;;;;;;;40.28;18.63;;;;;;;-5.63;46.17;99980.06;5012477;28;20068;-64
2022/03/12 05:18:11;;;;;;;45.17;19.80;;;;;;;-5.67;45.98;99976.84;5008211;28;20034;-64
2022/03/12 05:20:39;;;;;;;39.83;18.58;;;;;;;-5.64;46.03;99965.84;5011997;28;20036;-64
2022/03/12 05:23:07;;;;;;;41.38;17.33;;;;;;;-5.60;45.95;99969.06;5011778;28;20026;-64
2022/03/12 05:25:34;;;;;;;36.75;17.23;;;;;;;-5.55;46.47;99967.59;5012023;28;20350;-64
2022/03/12 05:28:00;;;;;;;43.45;17.73;;;;;;;-5.49;45.86;99965.31;5011567;28;20037;-64
2022/03/12 05:30:27;;;;;;;38.45;17.67;;;;;;;-5.46;46.45;99976.50;5011580;28;20036;-64
2022/03/12 05:32:53;;;;;;;38.70;17.92;;;;;;;-5.44;46.46;99966.50;5011135;28;20068;-64
2022/03/12 05:35:20;;;;;;;39.95;18.73;;;;;;;-5.41;46.19;99965.38;5011274;28;20030;-64
2022/03/12 05:37:47;;;;;;;43.25;18.83;;;;;;;-5.40;46.09;99962.53;5011492;28;20022;-64
2022/03/12 05:40:19;;;;;;;49.17;21.13;;;;;;;-5.35;45.99;99958.56;5011549;28;20034;-64
2022/03/12 05:42:48;;;;;;;44.10;18.98;;;;;;;-5.32;46.02;99961.78;5012818;28;20065;-64
2022/03/12 05:45:19;;;;;;;48.85;20.10;;;;;;;-5.28;46.18;99956.94;5012297;28;20057;-64
2022/03/12 05:47:46;;;;;;;42.28;19.17;;;;;;;-5.25;46.16;99967.34;5010622;28;20467;-64
2022/03/12 05:50:14;;;;;;;41.08;18.42;;;;;;;-5.21;46.28;99966.03;5012750;28;20466;-64
2022/03/12 05:52:41;;;;;;;42.03;18.55;;;;;;;-5.15;46.30;99972.56;5012260;28;20030;-64
2022/03/12 05:55:08;;;;;;;45.05;18.13;;;;;;;-5.10;46.66;99968.44;5012273;28;20022;-65
2022/03/12 05:57:34;;;;;;;44.17;18.30;;;;;;;-5.04;46.70;99971.47;5012384;28;20409;-64
2022/03/12 06:00:03;;;;;;;45.33;19.70;;;;;;;-5.01;46.65;99965.81;5007544;28;20421;-64
2022/03/12 06:02:29;;;;;;;44.58;19.20;;;;;;;-4.94;46.69;99982.91;5011673;28;20116;-64
2022/03/12 06:05:00;;;;;;;48.47;20.13;;;;;;;-4.93;46.39;99973.88;5011744;28;20390;-64
2022/03/12 06:07:27;;;;;;;48.03;20.40;;;;;;;-4.89;46.18;99974.44;5011900;28;20084;-64
2022/03/12 06:09:56;;;;;;;49.67;20.67;;;;;;;-4.85;46.52;99973.94;5011679;28;20049;-64
2022/03/12 06:12:26;;;;;;;44.33;19.70;;;;;;;-4.76;46.82;99968.66;5011494;28;20029;-64
2022/03/12 06:14:56;;;;;;;52.42;21.73;;;;;;;-4.70;46.91;99971.50;5011577;28;20117;-64
2022/03/12 06:17:26;;;;;;;46.70;20.33;;;;;;;-4.63;46.40;99974.38;5011766;28;20389;-64
2022/03/12 06:19:52;;;;;;;;;;;;;;;-4.57;46.60;99971.06;5012403;28;20038;-64
2022/03/12 06:22:17;;;;;;;45.80;18.95;;;;;;;-4.51;46.73;99966.94;5011295;28;19931;-64
2022/03/12 06:24:43;;;;;;;47.13;19.33;;;;;;;-4.44;46.69;99967.94;5011293;28;20116;-64
2022/03/12 06:27:08;;;;;;;42.75;18.65;;;;;;;-4.37;46.26;99968.97;5011371;28;20044;-64
2022/03/12 06:29:35;;;;;;;50.78;22.35;;;;;;;-4.29;46.41;99959.28;5011324;28;20029;-63
2022/03/12 06:32:01;;;;;;;50.55;22.40;;;;;;;-4.20;46.33;99961.00;5011307;28;20038;-64
2022/03/12 06:34:27;;;;;;;49.70;19.48;;;;;;;-4.11;46.13;99967.22;5009674;28;20075;-63
2022/03/12 06:36:52;;;;;;;48.83;20.60;;;;;;;-4.06;46.43;99964.91;5011594;28;20034;-64
2022/03/12 06:39:17;;;;;;;56.97;21.10;;;;;;;-4.01;46.47;99965.25;5011217;28;20121;-64
2022/03/12 06:41:44;;;;;;;47.83;21.15;;;;;;;-3.93;46.00;99972.47;5010845;28;20034;-64
2022/03/12 06:44:13;;;;;;;44.65;21.48;;;;;;;-3.82;46.16;99969.47;5010014;28;20092;-64
2022/03/12 06:46:39;;;;;;;43.42;18.98;;;;;;;-3.69;45.99;99968.97;5011631;28;20360;-64
2022/03/12 06:49:04;;;;;;;45.45;17.60;;;;;;;-3.58;46.03;99965.13;5011450;28;20036;-64
2022/03/12 06:51:31;;;;;;;36.35;16.60;;;;;;;-3.49;45.86;99968.66;5011330;28;20052;-64
2022/03/12 06:53:56;;;;;;;33.42;15.55;;;;;;;-3.42;45.73;99961.59;5007852;28;20155;-64
2022/03/12 06:56:22;;;;;;;39.28;15.43;;;;;;;-3.33;45.50;99962.47;5011284;28;20053;-64
2022/03/12 06:58:47;;;;;;;39.55;18.13;;;;;;;-3.23;45.49;99964.97;5011467;28;20038;-64
2022/03/12 07:01:13;;;;;;;33.53;14.93;;;;;;;-3.15;45.21;99959.59;5010112;28;20222;-64
2022/03/12 07:03:38;;;;;;;54.65;25.20;;;;;;;-3.06;44.69;99955.91;5010088;28;20110;-64
2022/03/12 07:06:04;;;;;;;44.45;20.38;;;;;;;-2.94;44.85;99959.06;5010662;28;20498;-64
2022/03/12 07:08:30;;;;;;;34.58;16.63;;;;;;;-2.83;44.85;99960.53;5010032;28;20587;-65
2022/03/12 07:10:56;;;;;;;38.83;17.17;;;;;;;-2.75;44.28;99960.53;5010674;28;20038;-64
2022/03/12 07:13:22;;;;;;;40.90;16.88;;;;;;;-2.68;44.16;99960.66;5010614;28;20109;-64
2022/03/12 07:15:47;;;;;;;30.52;12.48;;;;;;;-2.59;43.77;99961.47;5011471;28;20117;-64
2022/03/12 07:18:12;;;;;;;33.22;14.52;;;;;;;-2.50;43.67;99955.06;5010387;28;20379;-64
2022/03/12 07:20:38;;;;;;;30.42;13.93;;;;;;;-2.43;43.41;99955.19;5010071;28;20034;-64
2022/03/12 07:23:04;;;;;;;33.80;14.70;;;;;;;-2.32;43.37;99954.00;5010358;28;20041;-65
2022/03/12 07:25:29;;;;;;;29.30;15.18;;;;;;;-2.21;42.55;99960.81;5010301;28;20026;-64
2022/03/12 07:27:55;;;;;;;33.08;14.20;;;;;;;-2.10;42.94;99958.56;5010289;28;20040;-64
2022/03/12 07:30:21;;;;;;;32.33;14.40;;;;;;;-1.99;42.33;99959.19;5010600;28;20053;-64
2022/03/12 07:32:48;;;;;;;27.50;13.95;;;;;;;-1.88;42.69;99961.47;5010377;28;20422;-65
2022/03/12 07:35:16;;;;;;;33.97;14.27;;;;;;;-1.79;41.73;99962.25;5008619;28;20030;-64
2022/03/12 07:37:43;;;;;;;34.47;14.55;;;;;;;-1.69;41.21;99956.63;5010348;28;20489;-65
2022/03/12 07:40:10;;;;;;;38.25;15.25;;;;;;;-1.61;41.67;99956.59;5010065;28;20080;-65
2022/03/12 07:42:36;;;;;;;42.10;19.98;;;;;;;-1.52;41.39;99955.50;5010489;28;20022;-64
2022/03/12 07:45:03;;;;;;;34.60;16.58;;;;;;;-1.40;42.14;99945.16;5009960;28;20034;-64
2022/03/12 07:47:29;;;;;;;36.50;15.15;;;;;;;-1.30;41.11;99949.44;5010557;28;20485;-65
2022/03/12 07:49:54;;;;;;;34.90;15.77;;;;;;;-1.24;40.41;99954.94;5008804;28;20030;-65
2022/03/12 07:52:20;;;;;;;50.03;21.20;;;;;;;-1.18;40.86;99953.34;5010482;28;20041;-65
2022/03/12 07:54:45;;;;;;;47.30;19.30;;;;;;;-1.10;41.14;99947.91;5009258;28;20026;-65
2022/03/12 07:57:11;;;;;;;37.25;15.20;;;;;;;-1.00;40.14;99946.81;5010146;28;20040;-65
2022/03/12 07:59:37;;;;;;;52.80;20.10;;;;;;;-0.92;40.70;99946.72;5010316;28;20093;-65
2022/03/12 08:02:03;;;;;;;34.63;14.95;;;;;;;-0.80;39.67;99956.00;5009164;28;20076;-65
2022/03/12 08:04:33;;;;;;;37.17;15.32;;;;;;;-0.71;39.33;99959.47;5009901;28;20118;-66
2022/03/12 08:07:02;;;;;;;36.78;14.77;;;;;;;-0.63;39.78;99961.22;5009546;28;20026;-65
2022/03/12 08:09:28;;;;;;;34.28;14.82;;;;;;;-0.56;39.55;99959.47;5010163;28;20049;-65
2022/03/12 08:11:53;;;;;;;33.33;14.07;;;;;;;-0.45;40.00;99963.53;5009790;28;20038;-66
2022/03/12 08:14:22;;;;;;;42.10;17.45;;;;;;;-0.32;39.87;99960.19;5007059;28;20087;-66
2022/03/12 08:16:49;;;;;;;34.78;13.88;;;;;;;-0.17;38.78;99962.84;5010403;28;20049;-65
2022/03/12 08:19:15;;;;;;;33.58;13.85;;;;;;;-0.11;37.08;99951.31;5011018;28;20033;-65
2022/03/12 08:21:41;;;;;;;29.20;11.60;;;;;;;-0.05;37.36;99957.84;5008927;28;20493;-65
2022/03/12 08:24:07;;;;;;;35.55;14.25;;;;;;;0.03;37.42;99952.31;5010066;28;20030;-66
2022/03/12 08:26:34;;;;;;;32.03;13.52;;;;;;;0.10;37.09;99955.09;5009423;28;20056;-65
2022/03/12 08:29:00;;;;;;;33.40;14.32;;;;;;;0.17;37.64;99956.00;5010155;28;20049;-65
2022/03/12 08:31:25;;;;;;;26.45;11.80;;;;;;;0.28;37.83;99957.34;5010398;28;20034;-65
2022/03/12 08:33:51;;;;;;;25.27;11.38;;;;;;;0.37;38.06;99952.66;5008920;28;20048;-65
2022/03/12 08:36:17;;;;;;;25.90;11.18;;;;;;;0.47;37.80;99952.34;5009925;28;20371;-64
2022/03/12 08:38:42;;;;;;;24.08;11.07;;;;;;;0.57;36.96;99948.31;5009987;28;20065;-63
2022/03/12 08:41:10;;;;;;;21.63;10.80;;;;;;;0.65;36.98;99955.44;5010274;28;20509;-64
2022/03/12 08:43:37;;;;;;;25.00;11.07;;;;;;;0.73;36.80;99954.44;5003644;28;20040;-64
2022/03/12 08:46:05;;;;;;;27.10;10.88;;;;;;;0.86;36.85;99951.00;5014598;28;20140;-64
2022/03/12 08:48:31;;;;;;;23.17;10.48;;;;;;;0.91;36.05;99950.44;5011996;28;20022;-64
2022/03/12 08:50:56;;;;;;;26.85;13.00;;;;;;;0.97;36.02;99944.25;5012767;28;20049;-64
2022/03/12 08:53:22;;;;;;;20.05;10.43;;;;;;;1.05;35.53;99949.50;5011758;28;20564;-64
2022/03/12 08:55:48;;;;;;;27.38;12.95;;;;;;;1.12;36.04;99941.44;5012251;28;20030;-63
2022/03/12 08:58:14;;;;;;;22.33;10.57;;;;;;;1.19;36.00;99940.44;5011212;28;20033;-63
2022/03/12 09:00:42;;;;;;;23.38;11.40;;;;;;;1.24;34.93;99934.44;5010543;28;20042;-63
2022/03/12 09:03:09;;;;;;;20.13;10.10;;;;;;;1.32;36.01;99933.47;5010148;28;20102;-64
2022/03/12 09:05:35;;;;;;;24.08;11.43;;;;;;;1.42;35.88;99936.66;5012063;28;20046;-65
2022/03/12 09:08:01;;;;;;;18.40;9.63;;;;;;;1.48;35.67;99932.31;5007097;28;20530;-64
2022/03/12 09:10:26;;;;;;;26.05;12.05;;;;;;;1.57;35.20;99933.81;5009550;28;20040;-64
2022/03/12 09:12:53;;;;;;;29.40;12.48;;;;;;;1.67;36.03;99932.59;5008625;28;20033;-64
2022/03/12 09:15:21;;;;;;;25.90;11.10;;;;;;;1.78;35.55;99935.56;5012473;28;20030;-64
2022/03/12 09:17:47;;;;;;;24.70;11.07;;;;;;;1.89;34.87;99930.59;5008163;28;20117;-64
2022/03/12 09:20:12;;;;;;;24.55;11.52;;;;;;;2.00;35.95;99930.00;5007696;28;20040;-64
2022/03/12 09:22:39;;;;;;;25.20;12.27;;;;;;;2.09;35.64;99930.66;5009984;28;20585;-64
2022/03/12 09:25:09;;;;;;;29.70;13.38;;;;;;;2.16;34.27;99926.09;5008718;28;20034;-65
2022/03/12 09:27:35;;;;;;;28.25;12.65;;;;;;;2.17;34.89;99925.06;5008830;28;20026;-65
2022/03/12 09:30:00;;;;;;;24.40;11.13;;;;;;;2.25;34.87;99923.19;5010433;28;20096;-64
2022/03/12 09:32:26;;;;;;;32.40;13.23;;;;;;;2.28;33.26;99920.09;5008355;28;20033;-65
2022/03/12 09:34:52;;;;;;;31.77;13.02;;;;;;;2.34;33.45;99921.97;5012898;28;20112;-64
2022/03/12 09:37:18;;;;;;;28.70;11.90;;;;;;;2.39;32.66;99905.94;5010797;28;20033;-63
2022/03/12 09:39:43;;;;;;;24.27;10.75;;;;;;;2.46;33.74;99904.06;5007352;28;20033;-64
2022/03/12 09:42:09;;;;;;;28.17;12.38;;;;;;;2.52;33.87;99897.81;5012011;28;20022;-64
2022/03/12 09:44:35;;;;;;;22.98;11.02;;;;;;;2.65;34.06;99894.28;5007654;28;20048;-64
2022/03/12 09:47:00;;;;;;;21.48;10.40;;;;;;;2.80;33.59;99896.78;5008035;28;20485;-64
2022/03/12 09:49:26;;;;;;;22.73;10.68;;;;;;;2.95;34.23;99893.00;5003643;28;20030;-64
2022/03/12 09:51:52;;;;;;;21.27;9.48;;;;;;;3.07;34.11;99890.47;5010364;28;20121;-64
2022/03/12 09:54:18;;;;;;;16.15;8.90;;;;;;;3.12;33.24;99886.09;5010109;28;20041;-64
2022/03/12 09:56:44;;;;;;;51.30;23.50;;;;;;;3.23;32.15;99891.94;5007381;28;20041;-64
2022/03/12 09:59:10;;;;;;;102.32;41.30;;;;;;;3.26;31.65;99895.03;5009671;28;20390;-64
2022/03/12 10:01:36;;;;;;;23.48;11.85;;;;;;;3.25;31.59;99887.94;5010771;28;20041;-64
2022/03/12 10:04:01;;;;;;;19.33;9.75;;;;;;;3.30;31.79;99884.59;5008169;28;20026;-64
2022/03/12 10:06:31;;;;;;;21.88;10.48;;;;;;;3.43;32.92;99891.88;5012042;28;20556;-64
2022/03/12 10:08:57;;;;;;;23.23;10.98;;;;;;;3.56;32.55;99886.38;5014655;28;20096;-64
2022/03/12 10:11:23;;;;;;;23.17;10.75;;;;;;;3.66;32.35;99887.81;5014535;28;20060;-64
2022/03/12 10:13:48;;;;;;;22.65;10.27;;;;;;;3.80;32.76;99888.56;5010148;28;20045;-64
2022/03/12 10:16:14;;;;;;;23.38;11.00;;;;;;;3.87;32.20;99884.75;5014701;28;20494;-64
2022/03/12 10:18:41;;;;;;;23.58;10.75;;;;;;;3.97;31.63;99878.88;5014549;28;20393;-64
2022/03/12 10:21:07;;;;;;;26.05;11.13;;;;;;;4.09;32.61;99887.16;5016664;28;20030;-64
2022/03/12 10:23:34;;;;;;;23.35;10.95;;;;;;;4.17;31.00;99876.03;5012505;28;20735;-64
2022/03/12 10:25:59;;;;;;;24.55;11.20;;;;;;;4.12;30.59;99872.31;5014747;28;20093;-64
2022/03/12 10:28:25;;;;;;;22.48;11.60;;;;;;;4.14;31.65;99872.91;5011678;28;20030;-64
2022/03/12 10:30:53;;;;;;;16.27;7.95;;;;;;;4.25;31.73;99863.25;5010908;28;20076;-64
2022/03/12 10:33:23;;;;;;;19.33;8.25;;;;;;;4.48;30.91;99865.38;5029510;28;20503;-65
2022/03/12 10:35:50;;;;;;;15.07;7.45;;;;;;;4.69;31.79;99863.31;5017442;28;20022;-64
2022/03/12 10:38:15;;;;;;;13.68;7.20;;;;;;;4.82;31.47;99854.19;5010869;28;20029;-64
2022/03/12 10:40:41;;;;;;;11.75;6.45;;;;;;;4.92;30.93;99852.63;5007324;28;20572;-64
2022/03/12 10:43:13;;;;;;;16.08;7.88;;;;;;;4.90;30.08;99851.19;5008700;28;20549;-64
2022/03/12 10:45:48;;;;;;;16.55;7.10;;;;;;;4.95;30.31;99835.03;5010644;28;20018;-64
2022/03/12 10:48:19;;;;;;;18.52;8.15;;;;;;;5.06;30.87;99847.06;5007512;28;20594;-64
2022/03/12 10:50:48;;;;;;;17.42;7.88;;;;;;;5.19;30.34;99844.19;5007485;28;20037;-64
2022/03/12 10:53:15;;;;;;;12.13;6.25;;;;;;;5.35;29.54;99837.31;5008020;28;20088;-63
2022/03/12 10:55:43;;;;;;;13.70;6.63;;;;;;;5.45;30.03;99830.50;5008810;28;20030;-64
2022/03/12 10:58:15;;;;;;;15.25;6.28;;;;;;;5.57;28.92;99836.81;5005151;28;20034;-64
2022/03/12 11:00:46;;;;;;;10.65;6.22;;;;;;;5.62;29.26;99831.53;5008419;28;20467;-64
2022/03/12 11:03:15;;;;;;;12.45;7.03;;;;;;;5.71;29.52;99831.22;5008598;28;20027;-65
2022/03/12 11:05:42;;;;;;;10.80;5.13;;;;;;;5.77;28.48;99822.94;5004618;28;20101;-64
2022/03/12 11:08:16;;;;;;;11.63;6.47;;;;;;;5.85;29.13;99823.69;5009805;28;20068;-64
2022/03/12 11:10:50;;;;;;;11.23;5.93;;;;;;;5.91;27.92;99829.03;5008293;28;20037;-64
2022/03/12 11:13:26;;;;;;;36.60;15.70;;;;;;;5.91;28.08;99826.31;5004862;28;20038;-64
2022/03/12 11:16:14;;;;;;;16.88;7.72;;;;;;;6.01;28.05;99820.34;5002484;28;20049;-65
2022/03/12 11:18:51;;;;;;;11.98;6.43;;;;;;;6.04;28.36;99813.59;4994901;28;20030;-65
2022/03/12 11:21:25;;;;;;;24.38;11.18;;;;;;;6.06;28.50;99814.19;4978711;28;20034;-64